createdAt,value
2017-12-28T00:00:23.598Z,4.00
2017-12-28T00:01:23.608Z,4.00
2017-12-28T00:02:23.619Z,4.00
2017-12-28T00:03:23.635Z,4.00
2017-12-28T00:04:23.644Z,4.00
2017-12-28T00:05:23.655Z,4.00
2017-12-28T00:06:23.667Z,4.00
2017-12-28T00:07:23.680Z,4.00
2017-12-28T00:08:23.701Z,4.00
2017-12-28T00:09:23.708Z,4.00
2017-12-28T00:10:23.719Z,4.00
2017-12-28T00:11:23.729Z,4.00
2017-12-28T00:12:23.746Z,4.00
2017-12-28T00:13:23.754Z,4.00
2017-12-28T00:14:23.765Z,4.00
2017-12-28T00:15:23.877Z,4.00
2017-12-28T00:16:23.791Z,4.00
2017-12-28T00:17:23.805Z,4.00
2017-12-28T00:18:23.816Z,4.00
2017-12-28T00:19:23.824Z,4.00
2017-12-28T00:20:23.838Z,4.00
2017-12-28T00:21:23.849Z,4.00
2017-12-28T00:22:23.860Z,4.00
2017-12-28T00:23:23.877Z,4.00
2017-12-28T00:24:23.885Z,4.00
2017-12-28T00:25:23.902Z,4.00
2017-12-28T00:26:23.909Z,4.00
2017-12-28T00:27:23.928Z,4.00
2017-12-28T00:28:23.936Z,4.00
2017-12-28T00:29:23.960Z,4.00
2017-12-28T00:30:23.963Z,4.00
2017-12-28T00:31:23.981Z,4.00
2017-12-28T00:32:23.981Z,4.00
2017-12-28T00:33:23.994Z,4.00
2017-12-28T00:34:24.005Z,4.00
2017-12-28T00:35:24.020Z,4.00
2017-12-28T00:36:24.032Z,4.00
2017-12-28T00:37:24.041Z,4.00
2017-12-28T00:38:24.054Z,4.00
2017-12-28T00:39:24.067Z,4.00
2017-12-28T00:40:24.084Z,4.00
2017-12-28T00:41:24.091Z,4.00
2017-12-28T00:42:24.103Z,4.00
2017-12-28T00:43:24.115Z,4.00
2017-12-28T00:44:24.126Z,4.00
2017-12-28T00:45:24.140Z,4.00
2017-12-28T00:46:24.151Z,4.00
2017-12-28T00:47:24.163Z,4.00
2017-12-28T00:48:24.176Z,4.00
2017-12-28T00:49:24.193Z,4.00
2017-12-28T00:50:24.202Z,4.00
2017-12-28T00:51:24.212Z,4.00
2017-12-28T00:52:24.230Z,4.00
2017-12-28T00:53:24.236Z,4.00
2017-12-28T00:54:24.257Z,4.00
2017-12-28T00:55:24.272Z,4.00
2017-12-28T00:56:24.279Z,4.00
2017-12-28T00:57:24.284Z,4.00
2017-12-28T00:58:24.295Z,4.00
2017-12-28T00:59:24.312Z,4.00
2017-12-28T01:00:24.328Z,4.00
2017-12-28T01:01:24.357Z,4.00
2017-12-28T01:02:24.348Z,4.00
2017-12-28T01:03:24.409Z,4.00
2017-12-28T01:04:24.371Z,4.00
2017-12-28T01:05:24.382Z,4.00
2017-12-28T01:06:24.396Z,4.00
2017-12-28T01:07:24.412Z,4.00
2017-12-28T01:08:24.418Z,4.00
2017-12-28T01:09:24.529Z,4.00
2017-12-28T01:10:24.442Z,4.00
2017-12-28T01:11:24.457Z,4.00
2017-12-28T01:12:24.466Z,4.00
2017-12-28T01:13:24.476Z,4.00
2017-12-28T01:14:24.492Z,4.00
2017-12-28T01:15:24.504Z,4.00
2017-12-28T01:16:24.514Z,4.00
2017-12-28T01:17:24.526Z,4.00
2017-12-28T01:18:24.536Z,4.00
2017-12-28T01:19:24.550Z,4.00
2017-12-28T01:20:24.561Z,4.00
2017-12-28T01:21:24.574Z,4.00
2017-12-28T01:22:24.584Z,4.00
2017-12-28T01:23:24.698Z,4.00
2017-12-28T01:24:24.611Z,4.00
2017-12-28T01:25:24.621Z,4.00
2017-12-28T01:26:24.634Z,4.00
2017-12-28T01:27:24.647Z,4.00
2017-12-28T01:28:24.664Z,4.00
2017-12-28T01:29:24.671Z,4.00
2017-12-28T01:30:24.682Z,4.00
2017-12-28T01:31:24.698Z,4.00
2017-12-28T01:32:24.706Z,4.00
2017-12-28T01:33:24.721Z,4.00
2017-12-28T01:34:24.729Z,4.00
2017-12-28T01:35:24.746Z,4.00
2017-12-28T01:36:24.754Z,4.00
2017-12-28T01:37:24.769Z,4.00
2017-12-28T01:38:24.778Z,4.00
2017-12-28T01:39:24.788Z,4.00
2017-12-28T01:40:24.801Z,4.00
2017-12-28T01:41:24.812Z,4.00
2017-12-28T01:42:24.827Z,4.00
2017-12-28T01:43:24.838Z,4.00
2017-12-28T01:44:24.854Z,4.00
2017-12-28T01:45:24.864Z,4.00
2017-12-28T01:46:24.874Z,4.00
2017-12-28T01:47:24.886Z,4.00
2017-12-28T01:48:24.904Z,4.00
2017-12-28T01:49:24.909Z,4.00
2017-12-28T01:50:24.921Z,4.00
2017-12-28T01:51:24.932Z,4.00
2017-12-28T01:52:24.947Z,4.00
2017-12-28T01:53:24.955Z,4.00
2017-12-28T01:54:24.968Z,4.00
2017-12-28T01:55:24.981Z,4.00
2017-12-28T01:56:24.992Z,4.00
2017-12-28T01:57:25.005Z,4.00
2017-12-28T01:58:25.021Z,4.00
2017-12-28T01:59:25.029Z,4.00
2017-12-28T02:00:25.038Z,4.00
2017-12-28T02:01:25.051Z,4.00
2017-12-28T02:02:25.064Z,4.00
2017-12-28T02:03:25.075Z,4.00
2017-12-28T02:04:25.086Z,4.00
2017-12-28T02:05:25.096Z,4.00
2017-12-28T02:06:25.109Z,4.00
2017-12-28T02:07:25.120Z,4.00
2017-12-28T02:08:25.131Z,4.00
2017-12-28T02:09:25.150Z,4.00
2017-12-28T02:10:25.165Z,4.00
2017-12-28T02:11:25.167Z,4.00
2017-12-28T02:12:25.183Z,4.00
2017-12-28T02:13:25.191Z,4.00
2017-12-28T02:14:25.200Z,4.00
2017-12-28T02:15:25.215Z,4.00
2017-12-28T02:16:25.224Z,4.00
2017-12-28T02:17:25.234Z,4.00
2017-12-28T02:18:25.246Z,4.00
2017-12-28T02:19:25.264Z,4.00
2017-12-28T02:20:25.268Z,4.00
2017-12-28T02:21:25.281Z,4.00
2017-12-28T02:22:25.293Z,4.00
2017-12-28T02:23:25.303Z,4.00
2017-12-28T02:24:25.315Z,4.00
2017-12-28T02:25:25.335Z,4.00
2017-12-28T02:26:25.346Z,4.00
2017-12-28T02:27:25.353Z,4.00
2017-12-28T02:28:25.360Z,4.00
2017-12-28T02:29:25.372Z,4.00
2017-12-28T02:30:25.383Z,4.00
2017-12-28T02:31:25.397Z,4.00
2017-12-28T02:32:25.407Z,4.00
2017-12-28T02:33:25.418Z,4.00
2017-12-28T02:34:25.428Z,4.00
2017-12-28T02:35:25.440Z,4.00
2017-12-28T02:36:25.452Z,4.00
2017-12-28T02:37:25.461Z,4.00
2017-12-28T02:38:25.473Z,4.00
2017-12-28T02:39:25.486Z,4.00
2017-12-28T02:40:25.498Z,4.00
2017-12-28T02:41:25.509Z,4.00
2017-12-28T02:42:25.519Z,4.00
2017-12-28T02:43:25.534Z,4.00
2017-12-28T02:44:25.548Z,4.00
2017-12-28T02:45:25.552Z,4.00
2017-12-28T02:46:26.768Z,4.00
2017-12-28T02:47:25.579Z,4.00
2017-12-28T02:48:25.590Z,4.00
2017-12-28T02:49:25.600Z,4.00
2017-12-28T02:50:25.613Z,4.00
2017-12-28T02:51:25.631Z,4.00
2017-12-28T02:52:25.635Z,4.00
2017-12-28T02:53:25.646Z,4.00
2017-12-28T02:54:25.658Z,4.00
2017-12-28T02:55:25.670Z,4.00
2017-12-28T02:56:25.682Z,4.00
2017-12-28T02:57:25.691Z,4.00
2017-12-28T02:58:25.704Z,4.00
2017-12-28T02:59:25.718Z,4.00
2017-12-28T03:00:25.727Z,4.00
2017-12-28T03:01:25.737Z,4.00
2017-12-28T03:02:25.751Z,4.00
2017-12-28T03:03:25.765Z,4.00
2017-12-28T03:04:25.773Z,4.00
2017-12-28T03:05:25.784Z,4.00
2017-12-28T03:06:25.798Z,4.00
2017-12-28T03:07:25.811Z,4.00
2017-12-28T03:08:25.818Z,4.00
2017-12-28T03:09:25.830Z,4.00
2017-12-28T03:10:25.839Z,4.00
2017-12-28T03:11:25.856Z,4.00
2017-12-28T03:12:25.865Z,4.00
2017-12-28T03:13:25.874Z,4.00
2017-12-28T03:14:25.891Z,4.00
2017-12-28T03:15:25.897Z,4.00
2017-12-28T03:16:25.907Z,4.00
2017-12-28T03:17:25.920Z,4.00
2017-12-28T03:18:25.932Z,4.00
2017-12-28T03:19:25.945Z,4.00
2017-12-28T03:20:25.958Z,4.00
2017-12-28T03:21:25.970Z,4.00
2017-12-28T03:22:25.976Z,4.00
2017-12-28T03:23:25.987Z,4.00
2017-12-28T03:24:25.999Z,4.00
2017-12-28T03:25:26.025Z,4.00
2017-12-28T03:26:26.020Z,4.00
2017-12-28T03:27:26.131Z,4.00
2017-12-28T03:28:26.043Z,4.00
2017-12-28T03:29:26.054Z,4.00
2017-12-28T03:30:26.073Z,4.00
2017-12-28T03:31:26.080Z,4.00
2017-12-28T03:32:26.088Z,4.00
2017-12-28T03:33:26.099Z,4.00
2017-12-28T03:34:26.359Z,4.00
2017-12-28T03:35:26.121Z,4.00
2017-12-28T03:36:26.138Z,4.00
2017-12-28T03:37:26.142Z,4.00
2017-12-28T03:38:26.154Z,4.00
2017-12-28T03:39:26.165Z,4.00
2017-12-28T03:40:26.176Z,4.00
2017-12-28T03:41:26.187Z,4.00
2017-12-28T03:42:26.199Z,4.00
2017-12-28T03:43:26.239Z,4.00
2017-12-28T03:44:26.227Z,4.00
2017-12-28T03:45:26.231Z,4.00
2017-12-28T03:46:26.243Z,4.00
2017-12-28T03:47:26.254Z,4.00
2017-12-28T03:48:26.269Z,4.00
2017-12-28T03:49:26.275Z,4.00
2017-12-28T03:50:26.286Z,4.00
2017-12-28T03:51:26.299Z,4.00
2017-12-28T03:52:26.316Z,4.00
2017-12-28T03:53:26.338Z,4.00
2017-12-28T03:54:26.334Z,4.00
2017-12-28T03:55:26.344Z,4.00
2017-12-28T03:56:26.354Z,4.00
2017-12-28T03:57:26.364Z,4.00
2017-12-28T03:58:26.379Z,4.00
2017-12-28T03:59:26.392Z,4.00
2017-12-28T04:00:26.404Z,4.00
2017-12-28T04:01:26.409Z,4.00
2017-12-28T04:02:26.424Z,4.00
2017-12-28T04:03:26.435Z,4.00
2017-12-28T04:04:26.443Z,4.00
2017-12-28T04:05:26.453Z,4.00
2017-12-28T04:06:26.464Z,4.00
2017-12-28T04:07:26.475Z,4.00
2017-12-28T04:08:26.502Z,4.00
2017-12-28T04:09:26.500Z,4.00
2017-12-28T04:10:26.509Z,4.00
2017-12-28T04:11:26.525Z,4.00
2017-12-28T04:12:26.537Z,4.00
2017-12-28T04:13:26.543Z,4.00
2017-12-28T04:14:26.555Z,4.00
2017-12-28T04:15:26.566Z,4.00
2017-12-28T04:16:26.578Z,4.00
2017-12-28T04:17:26.588Z,4.00
2017-12-28T04:18:26.600Z,4.00
2017-12-28T04:19:26.612Z,4.00
2017-12-28T04:20:26.622Z,4.00
2017-12-28T04:21:26.633Z,4.00
2017-12-28T04:22:26.645Z,4.00
2017-12-28T04:23:26.657Z,4.00
2017-12-28T04:24:26.669Z,4.00
2017-12-28T04:25:26.679Z,4.00
2017-12-28T04:26:26.693Z,4.00
2017-12-28T04:27:26.708Z,4.00
2017-12-28T04:28:26.710Z,4.00
2017-12-28T04:29:26.726Z,4.00
2017-12-28T04:30:26.737Z,4.00
2017-12-28T04:31:26.746Z,4.00
2017-12-28T04:32:26.755Z,4.00
2017-12-28T04:33:26.777Z,4.00
2017-12-28T04:34:26.779Z,4.00
2017-12-28T04:35:26.795Z,4.00
2017-12-28T04:36:26.802Z,4.00
2017-12-28T04:37:26.812Z,4.00
2017-12-28T04:38:26.823Z,4.00
2017-12-28T04:39:26.840Z,4.00
2017-12-28T04:40:26.850Z,4.00
2017-12-28T04:41:26.867Z,4.00
2017-12-28T04:42:26.872Z,4.00
2017-12-28T04:43:26.880Z,4.00
2017-12-28T04:44:26.899Z,4.00
2017-12-28T04:45:26.903Z,4.00
2017-12-28T04:46:26.921Z,4.00
2017-12-28T04:47:26.926Z,4.00
2017-12-28T04:48:26.936Z,4.00
2017-12-28T04:49:26.948Z,4.00
2017-12-28T04:50:26.959Z,4.00
2017-12-28T04:51:26.970Z,4.00
2017-12-28T04:52:26.984Z,4.00
2017-12-28T04:53:27.004Z,4.00
2017-12-28T04:54:27.004Z,4.00
2017-12-28T04:55:27.015Z,4.00
2017-12-28T04:56:27.025Z,4.00
2017-12-28T04:57:27.036Z,4.00
2017-12-28T04:58:27.051Z,4.00
2017-12-28T04:59:27.060Z,4.00
2017-12-28T05:00:27.070Z,4.00
2017-12-28T05:01:27.080Z,4.00
2017-12-28T05:02:27.092Z,4.00
2017-12-28T05:03:27.110Z,4.00
2017-12-28T05:04:27.115Z,4.00
2017-12-28T05:05:27.129Z,4.00
2017-12-28T05:06:27.136Z,4.00
2017-12-28T05:07:27.151Z,4.00
2017-12-28T05:08:27.159Z,4.00
2017-12-28T05:09:27.171Z,4.00
2017-12-28T05:10:27.181Z,4.00
2017-12-28T05:11:27.193Z,4.00
2017-12-28T05:12:27.208Z,4.00
2017-12-28T05:13:27.213Z,4.00
2017-12-28T05:14:27.226Z,4.00
2017-12-28T05:15:27.241Z,4.00
2017-12-28T05:16:27.249Z,4.00
2017-12-28T05:17:27.259Z,4.00
2017-12-28T05:18:27.275Z,4.00
2017-12-28T05:19:27.281Z,4.00
2017-12-28T05:20:27.292Z,4.00
2017-12-28T05:21:27.304Z,4.00
2017-12-28T05:22:27.312Z,4.00
2017-12-28T05:23:27.328Z,4.00
2017-12-28T05:24:27.342Z,4.00
2017-12-28T05:25:27.349Z,4.00
2017-12-28T05:26:27.358Z,4.00
2017-12-28T05:27:27.370Z,4.00
2017-12-28T05:28:27.384Z,4.00
2017-12-28T05:29:27.389Z,4.00
2017-12-28T05:30:27.406Z,4.00
2017-12-28T05:31:27.413Z,4.00
2017-12-28T05:32:27.423Z,4.00
2017-12-28T05:33:27.434Z,4.00
2017-12-28T05:34:27.447Z,4.00
2017-12-28T05:35:27.459Z,4.00
2017-12-28T05:36:27.468Z,4.00
2017-12-28T05:37:27.479Z,4.00
2017-12-28T05:38:27.489Z,4.00
2017-12-28T05:39:27.517Z,4.00
2017-12-28T05:40:27.512Z,4.00
2017-12-28T05:41:27.523Z,4.00
2017-12-28T05:42:27.534Z,4.00
2017-12-28T05:43:27.545Z,4.00
2017-12-28T05:44:27.567Z,4.00
2017-12-28T05:45:27.570Z,4.00
2017-12-28T05:46:27.582Z,4.00
2017-12-28T05:47:27.595Z,4.00
2017-12-28T05:48:27.603Z,4.00
2017-12-28T05:49:27.613Z,4.00
2017-12-28T05:50:27.633Z,4.00
2017-12-28T05:51:27.636Z,4.00
2017-12-28T05:52:27.656Z,4.00
2017-12-28T05:53:27.661Z,4.00
2017-12-28T05:54:27.667Z,4.00
2017-12-28T05:55:27.678Z,4.00
2017-12-28T05:56:27.693Z,4.00
2017-12-28T05:57:27.701Z,4.00
2017-12-28T05:58:27.713Z,4.00
2017-12-28T05:59:27.727Z,4.00
2017-12-28T06:00:27.735Z,4.00
2017-12-28T06:01:27.749Z,4.00
2017-12-28T06:02:27.757Z,4.00
2017-12-28T06:03:27.785Z,4.00
2017-12-28T06:04:27.785Z,4.00
2017-12-28T06:05:27.789Z,4.00
2017-12-28T06:06:27.800Z,4.00
2017-12-28T06:07:27.812Z,4.00
2017-12-28T06:08:27.828Z,4.00
2017-12-28T06:09:27.835Z,4.00
2017-12-28T06:10:27.844Z,4.00
2017-12-28T06:11:27.859Z,4.00
2017-12-28T06:12:27.867Z,4.00
2017-12-28T06:13:27.883Z,4.00
2017-12-28T06:14:27.889Z,4.00
2017-12-28T06:15:27.900Z,4.00
2017-12-28T06:16:27.912Z,4.00
2017-12-28T06:17:27.941Z,4.00
2017-12-28T06:18:27.938Z,4.00
2017-12-28T06:19:27.943Z,4.00
2017-12-28T06:20:27.968Z,4.00
2017-12-28T06:21:27.979Z,4.00
2017-12-28T06:22:28.002Z,4.00
2017-12-28T06:23:27.987Z,4.00
2017-12-28T06:24:28.003Z,4.00
2017-12-28T06:25:28.014Z,4.00
2017-12-28T06:26:28.034Z,4.00
2017-12-28T06:27:28.042Z,4.00
2017-12-28T06:28:28.045Z,4.00
2017-12-28T06:29:28.055Z,4.00
2017-12-28T06:30:28.064Z,4.00
2017-12-28T06:31:28.073Z,4.00
2017-12-28T06:32:28.086Z,4.00
2017-12-28T06:33:28.118Z,4.00
2017-12-28T06:34:28.175Z,4.00
2017-12-28T06:35:28.122Z,8.00
2017-12-28T06:36:28.131Z,4.00
2017-12-28T06:37:28.140Z,4.00
2017-12-28T06:38:28.151Z,8.00
2017-12-28T06:39:28.169Z,8.00
2017-12-28T06:40:28.183Z,8.00
2017-12-28T06:41:28.185Z,8.00
2017-12-28T06:42:28.207Z,8.00
2017-12-28T06:43:28.208Z,8.00
2017-12-28T06:44:28.218Z,8.00
2017-12-28T06:45:28.228Z,8.00
2017-12-28T06:46:28.239Z,8.00
2017-12-28T06:47:28.253Z,8.00
2017-12-28T06:48:28.264Z,8.00
2017-12-28T06:49:28.274Z,8.00
2017-12-28T06:50:28.285Z,4.00
2017-12-28T06:51:28.327Z,8.00
2017-12-28T06:52:28.342Z,8.00
2017-12-28T06:53:28.324Z,4.00
2017-12-28T06:54:28.332Z,4.00
2017-12-28T06:55:28.344Z,4.00
2017-12-28T06:56:28.352Z,4.00
2017-12-28T06:57:28.365Z,4.00
2017-12-28T06:58:28.376Z,4.00
2017-12-28T06:59:28.387Z,4.00
2017-12-28T07:00:28.402Z,4.00
2017-12-28T07:01:28.412Z,4.00
2017-12-28T07:02:28.427Z,4.00
2017-12-28T07:03:28.438Z,4.00
2017-12-28T07:04:28.450Z,4.00
2017-12-28T07:05:28.456Z,4.00
2017-12-28T07:06:28.472Z,4.00
2017-12-28T07:07:28.578Z,4.00
2017-12-28T07:08:28.490Z,8.00
2017-12-28T07:09:28.501Z,8.00
2017-12-28T07:10:28.530Z,4.00
2017-12-28T07:11:28.535Z,4.00
2017-12-28T07:12:28.536Z,8.00
2017-12-28T07:13:28.550Z,8.00
2017-12-28T07:14:28.556Z,8.00
2017-12-28T07:15:28.738Z,8.00
2017-12-28T07:16:28.581Z,8.00
2017-12-28T07:17:28.595Z,12.00
2017-12-28T07:18:28.604Z,12.00
2017-12-28T07:19:28.615Z,12.00
2017-12-28T07:20:28.715Z,12.00
2017-12-28T07:21:28.637Z,16.00
2017-12-28T07:22:28.650Z,16.00
2017-12-28T07:23:28.662Z,16.00
2017-12-28T07:24:28.671Z,20.00
2017-12-28T07:25:28.722Z,24.00
2017-12-28T07:26:28.696Z,28.00
2017-12-28T07:27:28.708Z,28.00
2017-12-28T07:28:28.728Z,28.00
2017-12-28T07:29:28.727Z,36.00
2017-12-28T07:30:28.739Z,36.00
2017-12-28T07:31:28.751Z,40.00
2017-12-28T07:32:28.767Z,44.00
2017-12-28T07:33:28.778Z,48.00
2017-12-28T07:34:28.794Z,52.00
2017-12-28T07:35:28.796Z,56.00
2017-12-28T07:36:28.807Z,60.00
2017-12-28T07:37:28.818Z,68.00
2017-12-28T07:38:28.855Z,76.00
2017-12-28T07:39:28.838Z,80.00
2017-12-28T07:40:28.865Z,84.00
2017-12-28T07:41:28.863Z,92.00
2017-12-28T07:42:28.877Z,96.00
2017-12-28T07:43:28.882Z,100.00
2017-12-28T07:44:28.894Z,108.00
2017-12-28T07:45:28.900Z,116.00
2017-12-28T07:46:28.912Z,124.00
2017-12-28T07:47:28.921Z,128.00
2017-12-28T07:48:28.931Z,136.00
2017-12-28T07:49:28.945Z,144.00
2017-12-28T07:50:28.951Z,152.00
2017-12-28T07:51:28.976Z,156.00
2017-12-28T07:52:28.974Z,168.00
2017-12-28T07:53:28.988Z,176.00
2017-12-28T07:54:29.001Z,184.00
2017-12-28T07:55:29.009Z,192.00
2017-12-28T07:56:29.024Z,204.00
2017-12-28T07:57:29.033Z,212.00
2017-12-28T07:58:29.039Z,220.00
2017-12-28T07:59:29.052Z,232.00
2017-12-28T08:00:29.063Z,240.00
2017-12-28T08:01:29.075Z,252.00
2017-12-28T08:02:29.085Z,268.00
2017-12-28T08:03:29.096Z,280.00
2017-12-28T08:04:29.110Z,292.00
2017-12-28T08:05:29.118Z,308.00
2017-12-28T08:06:29.133Z,328.00
2017-12-28T08:07:29.190Z,344.00
2017-12-28T08:08:29.151Z,360.00
2017-12-28T08:09:29.331Z,372.00
2017-12-28T08:10:29.174Z,380.00
2017-12-28T08:11:29.185Z,388.00
2017-12-28T08:12:29.201Z,396.00
2017-12-28T08:13:29.211Z,400.00
2017-12-28T08:14:29.217Z,408.00
2017-12-28T08:15:29.229Z,420.00
2017-12-28T08:16:29.245Z,432.00
2017-12-28T08:17:29.253Z,440.00
2017-12-28T08:18:29.262Z,456.00
2017-12-28T08:19:29.275Z,468.00
2017-12-28T08:20:29.289Z,480.00
2017-12-28T08:21:29.297Z,492.00
2017-12-28T08:22:29.305Z,500.00
2017-12-28T08:23:29.318Z,512.00
2017-12-28T08:24:29.332Z,524.00
2017-12-28T08:25:29.342Z,532.00
2017-12-28T08:26:29.348Z,540.00
2017-12-28T08:27:29.361Z,548.00
2017-12-28T08:28:29.373Z,556.00
2017-12-28T08:29:29.382Z,564.00
2017-12-28T08:30:29.391Z,572.00
2017-12-28T08:31:29.403Z,576.00
2017-12-28T08:32:29.416Z,584.00
2017-12-28T08:33:29.438Z,588.00
2017-12-28T08:34:29.490Z,592.00
2017-12-28T08:35:29.730Z,588.00
2017-12-28T08:36:29.457Z,580.00
2017-12-28T08:37:29.469Z,576.00
2017-12-28T08:38:29.480Z,572.00
2017-12-28T08:39:29.494Z,572.00
2017-12-28T08:40:29.499Z,572.00
2017-12-28T08:41:29.518Z,576.00
2017-12-28T08:42:29.523Z,580.00
2017-12-28T08:43:29.533Z,588.00
2017-12-28T08:44:31.263Z,596.00
2017-12-28T08:45:29.554Z,600.00
2017-12-28T08:46:29.567Z,584.00
2017-12-28T08:47:29.576Z,564.00
2017-12-28T08:48:29.587Z,576.00
2017-12-28T08:49:29.599Z,588.00
2017-12-28T08:50:29.650Z,588.00
2017-12-28T08:51:29.622Z,588.00
2017-12-28T08:52:29.631Z,600.00
2017-12-28T08:53:29.643Z,612.00
2017-12-28T08:54:29.669Z,616.00
2017-12-28T08:55:29.671Z,644.00
2017-12-28T08:56:29.673Z,684.00
2017-12-28T08:57:29.736Z,700.00
2017-12-28T08:58:29.694Z,708.00
2017-12-28T08:59:29.708Z,724.00
2017-12-28T09:00:29.873Z,752.00
2017-12-28T09:01:29.740Z,800.00
2017-12-28T09:02:29.747Z,832.00
2017-12-28T09:03:29.751Z,856.00
2017-12-28T09:04:29.761Z,860.00
2017-12-28T09:05:29.772Z,872.00
2017-12-28T09:06:29.782Z,888.00
2017-12-28T09:07:29.795Z,876.00
2017-12-28T09:08:29.806Z,876.00
2017-12-28T09:09:29.835Z,880.00
2017-12-28T09:10:29.824Z,884.00
2017-12-28T09:11:29.837Z,900.00
2017-12-28T09:12:29.970Z,1012.00
2017-12-28T09:13:29.862Z,972.00
2017-12-28T09:14:29.867Z,1104.00
2017-12-28T09:15:29.891Z,1252.00
2017-12-28T09:16:29.895Z,1312.00
2017-12-28T09:17:29.908Z,1328.00
2017-12-28T09:18:29.919Z,1392.00
2017-12-28T09:19:29.923Z,1464.00
2017-12-28T09:20:29.935Z,1692.00
2017-12-28T09:21:29.944Z,1824.00
2017-12-28T09:22:29.982Z,1812.00
2017-12-28T09:23:29.970Z,1768.00
2017-12-28T09:24:29.983Z,1712.00
2017-12-28T09:25:29.995Z,1688.00
2017-12-28T09:26:30.005Z,1664.00
2017-12-28T09:27:30.025Z,1636.00
2017-12-28T09:28:30.023Z,1608.00
2017-12-28T09:29:30.040Z,1616.00
2017-12-28T09:30:30.044Z,1620.00
2017-12-28T09:31:30.057Z,1616.00
2017-12-28T09:32:30.119Z,1620.00
2017-12-28T09:33:30.078Z,1632.00
2017-12-28T09:34:30.088Z,1640.00
2017-12-28T09:35:30.103Z,1652.00
2017-12-28T09:36:30.112Z,1672.00
2017-12-28T09:37:30.122Z,1692.00
2017-12-28T09:38:30.142Z,1716.00
2017-12-28T09:39:30.144Z,1732.00
2017-12-28T09:40:30.156Z,1756.00
2017-12-28T09:41:30.166Z,1760.00
2017-12-28T09:42:30.183Z,1776.00
2017-12-28T09:43:30.194Z,1788.00
2017-12-28T09:44:30.200Z,1804.00
2017-12-28T09:45:30.235Z,1816.00
2017-12-28T09:46:30.225Z,1832.00
2017-12-28T09:47:30.234Z,1844.00
2017-12-28T09:48:30.245Z,1868.00
2017-12-28T09:49:30.260Z,1884.00
2017-12-28T09:50:30.276Z,1908.00
2017-12-28T09:51:30.290Z,1936.00
2017-12-28T09:52:30.294Z,1956.00
2017-12-28T09:53:30.299Z,1980.00
2017-12-28T09:54:30.312Z,2008.00
2017-12-28T09:55:30.324Z,2024.00
2017-12-28T09:56:30.344Z,2048.00
2017-12-28T09:57:30.348Z,2068.00
2017-12-28T09:58:30.356Z,2084.00
2017-12-28T09:59:30.378Z,2100.00
2017-12-28T10:00:30.381Z,2096.00
2017-12-28T10:01:30.393Z,2096.00
2017-12-28T10:02:30.899Z,2072.00
2017-12-28T10:04:30.444Z,2016.00
2017-12-28T10:05:30.441Z,2000.00
2017-12-28T10:06:30.448Z,1972.00
2017-12-28T10:07:30.459Z,1956.00
2017-12-28T10:08:30.474Z,1944.00
2017-12-28T10:09:30.493Z,1920.00
2017-12-28T10:10:30.497Z,1908.00
2017-12-28T10:11:30.507Z,1896.00
2017-12-28T10:12:30.519Z,1888.00
2017-12-28T10:13:30.533Z,1880.00
2017-12-28T10:14:30.555Z,1872.00
2017-12-28T10:15:30.553Z,1856.00
2017-12-28T10:16:30.563Z,1876.00
2017-12-28T10:17:30.577Z,1872.00
2017-12-28T10:18:30.586Z,1828.00
2017-12-28T10:19:30.598Z,1840.00
2017-12-28T10:20:30.612Z,1828.00
2017-12-28T10:21:30.622Z,1836.00
2017-12-28T10:22:30.633Z,1864.00
2017-12-28T10:23:30.663Z,1892.00
2017-12-28T10:24:30.658Z,1916.00
2017-12-28T10:25:30.721Z,1936.00
2017-12-28T10:26:30.680Z,1972.00
2017-12-28T10:27:30.694Z,2020.00
2017-12-28T10:28:30.718Z,2032.00
2017-12-28T10:29:30.713Z,1964.00
2017-12-28T10:30:30.731Z,1996.00
2017-12-28T10:31:30.742Z,2052.00
2017-12-28T10:32:30.753Z,2112.00
2017-12-28T10:33:30.762Z,1656.00
2017-12-28T10:34:30.779Z,2044.00
2017-12-28T10:35:30.784Z,2000.00
2017-12-28T10:36:30.798Z,1976.00
2017-12-28T10:37:30.811Z,1944.00
2017-12-28T10:38:30.819Z,1928.00
2017-12-28T10:39:30.840Z,1912.00
2017-12-28T10:40:30.843Z,1912.00
2017-12-28T10:41:30.855Z,1908.00
2017-12-28T10:42:30.869Z,1912.00
2017-12-28T10:43:30.884Z,1912.00
2017-12-28T10:44:30.890Z,1892.00
2017-12-28T10:45:30.901Z,1872.00
2017-12-28T10:46:30.919Z,1864.00
2017-12-28T10:47:30.923Z,1860.00
2017-12-28T10:48:30.935Z,1848.00
2017-12-28T10:49:30.958Z,1856.00
2017-12-28T10:50:30.959Z,1868.00
2017-12-28T10:51:30.969Z,1852.00
2017-12-28T10:52:30.992Z,1852.00
2017-12-28T10:53:30.994Z,1844.00
2017-12-28T10:54:31.008Z,1848.00
2017-12-28T10:55:31.015Z,1848.00
2017-12-28T10:56:31.034Z,1832.00
2017-12-28T10:57:31.044Z,1816.00
2017-12-28T10:58:31.051Z,1808.00
2017-12-28T10:59:31.067Z,1792.00
2017-12-28T11:00:31.081Z,1768.00
2017-12-28T11:01:31.085Z,1768.00
2017-12-28T11:02:31.100Z,1760.00
2017-12-28T11:03:31.112Z,1744.00
2017-12-28T11:04:31.119Z,1724.00
2017-12-28T11:05:31.136Z,1748.00
2017-12-28T11:06:31.142Z,1700.00
2017-12-28T11:07:31.157Z,1668.00
2017-12-28T11:08:31.165Z,1656.00
2017-12-28T11:09:31.177Z,1620.00
2017-12-28T11:10:31.189Z,1784.00
2017-12-28T11:11:31.200Z,1812.00
2017-12-28T11:12:31.212Z,1876.00
2017-12-28T11:13:31.229Z,1872.00
2017-12-28T11:14:31.238Z,1844.00
2017-12-28T11:15:31.252Z,1640.00
2017-12-28T11:16:31.258Z,1900.00
2017-12-28T11:17:31.267Z,1920.00
2017-12-28T11:18:31.280Z,2152.00
2017-12-28T11:19:32.592Z,1772.00
2017-12-28T11:20:31.789Z,1948.00
2017-12-28T11:21:33.045Z,2000.00
2017-12-28T11:22:31.324Z,1880.00
2017-12-28T11:23:31.339Z,1812.00
2017-12-28T11:24:31.392Z,1464.00
2017-12-28T11:25:31.373Z,1600.00
2017-12-28T11:26:31.379Z,1868.00
2017-12-28T11:27:31.385Z,1408.00
2017-12-28T11:28:31.401Z,1572.00
2017-12-28T11:29:31.408Z,1604.00
2017-12-28T11:30:31.544Z,2552.00
2017-12-28T11:31:31.431Z,2340.00
2017-12-28T11:32:31.470Z,2152.00
2017-12-28T11:33:31.456Z,2372.00
2017-12-28T11:34:31.464Z,2392.00
2017-12-28T11:35:31.478Z,2180.00
2017-12-28T11:36:31.494Z,2276.00
2017-12-28T11:37:31.504Z,2184.00
2017-12-28T11:38:31.513Z,1920.00
2017-12-28T11:39:31.528Z,2328.00
2017-12-28T11:40:31.538Z,3048.00
2017-12-28T11:41:31.551Z,3600.00
2017-12-28T11:42:31.563Z,3068.00
2017-12-28T11:43:31.573Z,2464.00
2017-12-28T11:44:31.588Z,2504.00
2017-12-28T11:45:31.593Z,2352.00
2017-12-28T11:46:31.738Z,2024.00
2017-12-28T11:47:31.623Z,2288.00
2017-12-28T11:48:31.634Z,2572.00
2017-12-28T11:49:31.651Z,2544.00
2017-12-28T11:50:31.661Z,2756.00
2017-12-28T11:51:31.675Z,2712.00
2017-12-28T11:52:31.681Z,2656.00
2017-12-28T11:53:31.692Z,2256.00
2017-12-28T11:54:31.706Z,2408.00
2017-12-28T11:55:31.715Z,2292.00
2017-12-28T11:56:32.030Z,1716.00
2017-12-28T11:57:31.742Z,1768.00
2017-12-28T11:58:31.759Z,2248.00
2017-12-28T11:59:31.765Z,2480.00
2017-12-28T12:00:31.784Z,2456.00
2017-12-28T12:01:31.786Z,2136.00
2017-12-28T12:02:31.808Z,2116.00
2017-12-28T12:03:31.814Z,2100.00
2017-12-28T12:04:31.829Z,2284.00
2017-12-28T12:05:31.835Z,2292.00
2017-12-28T12:06:31.848Z,2860.00
2017-12-28T12:07:31.859Z,2648.00
2017-12-28T12:08:31.874Z,2480.00
2017-12-28T12:09:31.883Z,2472.00
2017-12-28T12:10:31.896Z,2364.00
2017-12-28T12:11:31.925Z,2232.00
2017-12-28T12:12:31.920Z,2068.00
2017-12-28T12:13:31.932Z,2400.00
2017-12-28T12:14:31.946Z,2244.00
2017-12-28T12:15:31.961Z,1856.00
2017-12-28T12:16:31.968Z,2032.00
2017-12-28T12:17:32.014Z,1828.00
2017-12-28T12:18:32.029Z,1792.00
2017-12-28T12:19:32.003Z,1852.00
2017-12-28T12:20:32.015Z,1936.00
2017-12-28T12:22:32.039Z,2604.00
2017-12-28T12:23:32.051Z,2128.00
2017-12-28T12:24:32.062Z,2032.00
2017-12-28T12:25:32.073Z,1976.00
2017-12-28T12:26:32.086Z,2272.00
2017-12-28T12:28:32.109Z,2564.00
2017-12-28T12:29:32.119Z,2608.00
2017-12-28T12:30:32.129Z,2156.00
2017-12-28T12:31:32.144Z,1808.00
2017-12-28T12:32:32.161Z,2096.00
2017-12-28T12:33:32.177Z,2000.00
2017-12-28T12:34:32.286Z,2440.00
2017-12-28T12:35:32.189Z,2176.00
2017-12-28T12:36:32.202Z,1612.00
2017-12-28T12:37:32.214Z,1352.00
2017-12-28T12:38:32.425Z,1488.00
2017-12-28T12:39:32.245Z,1348.00
2017-12-28T12:40:32.252Z,1596.00
2017-12-28T12:41:32.263Z,1704.00
2017-12-28T12:42:32.270Z,1612.00
2017-12-28T12:43:32.289Z,1792.00
2017-12-28T12:44:32.296Z,2268.00
2017-12-28T12:45:32.410Z,2176.00
2017-12-28T12:46:32.326Z,2020.00
2017-12-28T12:47:32.337Z,1776.00
2017-12-28T12:48:32.352Z,1792.00
2017-12-28T12:49:32.354Z,2032.00
2017-12-28T12:50:32.367Z,2248.00
2017-12-28T12:51:32.382Z,2192.00
2017-12-28T12:52:32.402Z,2000.00